Ovalo, Texas
Current Conditions -  °F | °C
As of 1:58 PM on Sunday 23 Nov 2014 (Local Time) from KDYS Reporting Station
Clear Clear  
Wind Chill: 74°   Ceiling: Unl
Heat Index: 74°   Visibility: 10mi
Dew Point: 31°   Wind: 24mph
Humidity: 21%   Direction: 310°NW
Pressure: 29.51"   Gusts: 32mph
Location:  32.17°N, 99.81°W
Report Text: KDYS 231958Z AUTO 31021G28KT 10SM CLR 23/00 A2951 RMK AO2 PK WND 28032/02 SLP967 T02331005 $
Loading
Personal Weather Stations






























Interactive Weather Map New forecast layout! Learn more

10-Day Weather Forecast

Advertisements
Track Severe Weather on mobile